Time;durP1;ratioP1;P1;durP2;ratioP2;P2;SDS_P1;SDS_P2;PMS_P1;PMS_P2;Temp;Humidity;BMP_temperature;BMP_pressure;BME280_temperature;BME280_humidity;BME280_pressure;Samples;Min_cycle;Max_cycle;Signal;HPM_P1;HPM_P2
2023/09/25 00:02:14;;;;;;;5.40;4.20;;;;;;;;;;5036951;28;20107;-93
2023/09/25 00:04:42;;;;;;;5.97;4.05;;;;;;;;;;5035688;28;20077;-92
2023/09/25 00:07:09;;;;;;;4.82;4.53;;;;;;;;;;5035926;28;20076;-92
2023/09/25 00:09:36;;;;;;;5.88;4.30;;;;;;;;;;5035385;28;20482;-92
2023/09/25 00:12:05;;;;;;;5.25;4.07;;;;;;;;;;5035614;28;20053;-93
2023/09/25 00:14:32;;;;;;;4.03;3.75;;;;;;;;;;5035617;28;20060;-92
2023/09/25 00:17:00;;;;;;;4.97;3.97;;;;;;;;;;5036494;28;20049;-92
2023/09/25 00:19:27;;;;;;;4.28;3.95;;;;;;;;;;5036565;28;20100;-92
2023/09/25 00:21:54;;;;;;;5.25;4.40;;;;;;;;;;5035779;28;20046;-92
2023/09/25 00:24:22;;;;;;;4.30;3.90;;;;;;;;;;5036049;28;20052;-92
2023/09/25 00:26:49;;;;;;;4.13;3.78;;;;;;;;;;5037625;28;20049;-92
2023/09/25 00:29:16;;;;;;;5.50;3.75;;;;;;;;;;5036857;28;20140;-92
2023/09/25 00:31:43;;;;;;;3.45;3.17;;;;;;;;;;5036368;28;20486;-93
2023/09/25 00:34:13;;;;;;;3.70;3.40;;;;;;;;;;5035477;28;20049;-93
2023/09/25 00:36:41;;;;;;;4.10;3.80;;;;;;;;;;5035609;28;20115;-92
2023/09/25 00:39:08;;;;;;;4.22;3.80;;;;;;;;;;5031821;28;20085;-93
2023/09/25 00:41:35;;;;;;;4.38;4.03;;;;;;;;;;5039602;28;20045;-93
2023/09/25 00:44:03;;;;;;;4.20;3.80;;;;;;;;;;5035226;28;20501;-92
2023/09/25 00:46:31;;;;;;;4.03;3.60;;;;;;;;;;5034252;28;20045;-93
2023/09/25 00:48:59;;;;;;;6.55;4.20;;;;;;;;;;5035810;28;20563;-93
2023/09/25 00:51:26;;;;;;;5.38;4.07;;;;;;;;;;5035536;28;20490;-93
2023/09/25 00:53:53;;;;;;;4.57;3.90;;;;;;;;;;5034821;28;20054;-94
2023/09/25 00:56:21;;;;;;;4.63;3.70;;;;;;;;;;5031391;28;20065;-93
2023/09/25 00:58:48;;;;;;;4.22;3.90;;;;;;;;;;5028201;28;20056;-92
2023/09/25 01:01:15;;;;;;;4.72;4.10;;;;;;;;;;5051032;28;20072;-92
2023/09/25 01:03:43;;;;;;;4.75;4.25;;;;;;;;;;5034441;28;20132;-92
2023/09/25 01:06:10;;;;;;;4.70;4.32;;;;;;;;;;5031031;28;20049;-93
2023/09/25 01:08:38;;;;;;;4.78;4.38;;;;;;;;;;5047789;28;20053;-93
2023/09/25 01:11:06;;;;;;;3.97;3.78;;;;;;;;;;5034503;28;20488;-93
2023/09/25 01:13:33;;;;;;;4.32;3.92;;;;;;;;;;5035592;28;20053;-94
2023/09/25 01:16:02;;;;;;;4.43;4.05;;;;;;;;;;5034188;28;20045;-92
2023/09/25 01:18:30;;;;;;;4.18;3.92;;;;;;;;;;5050650;28;20135;-95
2023/09/25 01:20:58;;;;;;;4.85;4.45;;;;;;;;;;5034255;28;20046;-94
2023/09/25 01:23:25;;;;;;;5.30;4.07;;;;;;;;;;5036324;28;20045;-93
2023/09/25 01:25:52;;;;;;;4.78;4.47;;;;;;;;;;5036834;28;20056;-93
2023/09/25 01:28:20;;;;;;;4.85;4.15;;;;;;;;;;5035510;28;20053;-93
2023/09/25 01:30:47;;;;;;;4.95;4.13;;;;;;;;;;5034154;28;20085;-93
2023/09/25 01:33:15;;;;;;;4.13;3.72;;;;;;;;;;5035397;28;20115;-93
2023/09/25 01:35:44;;;;;;;4.95;3.65;;;;;;;;;;5034385;28;20414;-93
2023/09/25 01:38:11;;;;;;;4.15;3.88;;;;;;;;;;5035083;28;20053;-93
2023/09/25 01:40:38;;;;;;;4.32;3.90;;;;;;;;;;5033854;28;20127;-92
2023/09/25 01:43:05;;;;;;;3.92;3.63;;;;;;;;;;5034106;28;20064;-92
2023/09/25 01:45:33;;;;;;;4.57;4.28;;;;;;;;;;5034253;28;20115;-93
2023/09/25 01:48:01;;;;;;;4.05;3.75;;;;;;;;;;5033819;28;20053;-93
2023/09/25 01:50:29;;;;;;;4.47;4.03;;;;;;;;;;5034768;28;20072;-94
2023/09/25 01:52:57;;;;;;;4.90;4.40;;;;;;;;;;5033862;28;20060;-93
2023/09/25 01:55:29;;;;;;;4.80;4.40;;;;;;;;;;5050307;28;20103;-93
2023/09/25 01:57:56;;;;;;;4.90;4.50;;;;;;;;;;5034222;28;20046;-93
2023/09/25 02:00:24;;;;;;;4.85;4.32;;;;;;;;;;5033391;28;20096;-93
2023/09/25 02:02:51;;;;;;;4.72;4.25;;;;;;;;;;5033799;28;20049;-93
2023/09/25 02:05:19;;;;;;;4.70;4.40;;;;;;;;;;5049598;28;20530;-93
2023/09/25 02:07:47;;;;;;;6.00;4.45;;;;;;;;;;5033450;28;20053;-93
2023/09/25 02:10:15;;;;;;;5.38;4.63;;;;;;;;;;5032955;28;20049;-93
2023/09/25 02:12:43;;;;;;;4.93;4.43;;;;;;;;;;5033067;28;20041;-94
2023/09/25 02:15:10;;;;;;;4.90;4.32;;;;;;;;;;5033010;28;20049;-93
2023/09/25 02:17:38;;;;;;;5.18;4.75;;;;;;;;;;5032956;28;20088;-94
2023/09/25 02:20:13;;;;;;;4.90;4.60;;;;;;;;;;5034024;28;20053;-93
2023/09/25 02:22:41;;;;;;;5.75;4.80;;;;;;;;;;5033053;28;20509;-93
2023/09/25 02:25:08;;;;;;;5.13;4.28;;;;;;;;;;5032885;28;20045;-94
2023/09/25 02:27:36;;;;;;;5.07;4.57;;;;;;;;;;5033057;28;20045;-93
2023/09/25 02:30:04;;;;;;;5.13;4.68;;;;;;;;;;5024862;28;20104;-93
2023/09/25 02:32:31;;;;;;;4.32;3.90;;;;;;;;;;5033961;28;20409;-93
2023/09/25 02:34:59;;;;;;;4.72;4.32;;;;;;;;;;5034008;28;20057;-93
2023/09/25 02:37:26;;;;;;;5.25;4.47;;;;;;;;;;5032621;28;20075;-93
2023/09/25 02:39:53;;;;;;;5.00;4.53;;;;;;;;;;5033245;28;20521;-93
2023/09/25 02:42:21;;;;;;;4.65;4.10;;;;;;;;;;5033685;28;20081;-93
2023/09/25 02:44:48;;;;;;;5.28;4.35;;;;;;;;;;5033166;28;20386;-93
2023/09/25 02:47:15;;;;;;;5.47;4.68;;;;;;;;;;5032311;28;20049;-92
2023/09/25 02:49:43;;;;;;;5.13;4.18;;;;;;;;;;5029761;28;20458;-94
2023/09/25 02:52:10;;;;;;;4.45;4.05;;;;;;;;;;5032158;28;20096;-93
2023/09/25 02:54:38;;;;;;;6.57;4.43;;;;;;;;;;5032623;28;20049;-92
2023/09/25 02:57:05;;;;;;;4.35;4.05;;;;;;;;;;5032581;28;20095;-94
2023/09/25 02:59:32;;;;;;;6.82;4.72;;;;;;;;;;5033481;28;20049;-92
2023/09/25 03:02:00;;;;;;;6.18;4.35;;;;;;;;;;5032656;28;20556;-93
2023/09/25 03:04:27;;;;;;;4.10;3.80;;;;;;;;;;5032372;28;20111;-93
2023/09/25 03:06:56;;;;;;;4.85;4.45;;;;;;;;;;5033795;28;20471;-93
2023/09/25 03:09:24;;;;;;;4.38;3.97;;;;;;;;;;5034063;28;20062;-93
2023/09/25 03:11:51;;;;;;;4.53;4.03;;;;;;;;;;5034821;28;20072;-93
2023/09/25 03:14:19;;;;;;;4.70;4.40;;;;;;;;;;5037111;28;20076;-94
2023/09/25 03:16:47;;;;;;;4.30;4.00;;;;;;;;;;5036192;28;20136;-93
2023/09/25 03:19:14;;;;;;;6.32;4.75;;;;;;;;;;5032268;28;20437;-93
2023/09/25 03:21:41;;;;;;;5.38;4.88;;;;;;;;;;5033233;28;20045;-93
2023/09/25 03:24:10;;;;;;;5.60;5.10;;;;;;;;;;5048984;28;20058;-94
2023/09/25 03:26:37;;;;;;;7.90;4.88;;;;;;;;;;5032183;28;20132;-93
2023/09/25 03:29:06;;;;;;;5.35;4.90;;;;;;;;;;5032379;28;20062;-94
2023/09/25 03:31:33;;;;;;;4.82;4.53;;;;;;;;;;5032405;28;20071;-93
2023/09/25 03:34:01;;;;;;;5.10;4.60;;;;;;;;;;5032013;28;20148;-93
2023/09/25 03:36:28;;;;;;;5.18;4.57;;;;;;;;;;5032505;28;20068;-92
2023/09/25 03:38:56;;;;;;;6.80;4.63;;;;;;;;;;5032201;28;20080;-93
2023/09/25 03:41:24;;;;;;;7.20;4.45;;;;;;;;;;5032193;28;20105;-93
2023/09/25 03:43:51;;;;;;;5.63;4.90;;;;;;;;;;5032682;28;20394;-93
2023/09/25 03:46:18;;;;;;;5.25;4.75;;;;;;;;;;5032003;28;20048;-93
2023/09/25 03:48:46;;;;;;;4.80;4.40;;;;;;;;;;5032417;28;20132;-93
2023/09/25 03:51:14;;;;;;;4.78;4.43;;;;;;;;;;5031917;28;20049;-93
2023/09/25 03:53:41;;;;;;;6.25;4.55;;;;;;;;;;5032421;28;20053;-94
2023/09/25 03:56:09;;;;;;;6.30;4.63;;;;;;;;;;5032448;28;20052;-93
2023/09/25 03:58:37;;;;;;;5.28;4.68;;;;;;;;;;5032070;28;20054;-93
2023/09/25 04:01:04;;;;;;;4.97;4.53;;;;;;;;;;5023731;28;20046;-94
2023/09/25 04:03:31;;;;;;;5.88;4.80;;;;;;;;;;5031911;28;20498;-93
2023/09/25 04:05:59;;;;;;;5.32;4.78;;;;;;;;;;5031812;28;20052;-93
2023/09/25 04:08:26;;;;;;;6.22;4.88;;;;;;;;;;5031558;28;20061;-93
2023/09/25 04:10:54;;;;;;;8.38;4.45;;;;;;;;;;5031686;28;20426;-93
2023/09/25 04:13:22;;;;;;;11.65;5.60;;;;;;;;;;5031704;28;20092;-93
2023/09/25 04:15:54;;;;;;;6.47;5.40;;;;;;;;;;5031414;28;20496;-94
2023/09/25 04:18:21;;;;;;;10.43;5.75;;;;;;;;;;5031961;28;20152;-93
2023/09/25 04:20:51;;;;;;;9.40;4.95;;;;;;;;;;5031688;28;20058;-94
2023/09/25 04:23:19;;;;;;;8.25;5.03;;;;;;;;;;5032011;28;20049;-93
2023/09/25 04:25:52;;;;;;;12.25;4.93;;;;;;;;;;5033747;28;20054;-94
2023/09/25 04:28:20;;;;;;;;;;;;;;;;;;5036199;28;20059;-93
2023/09/25 04:30:47;;;;;;;5.32;4.82;;;;;;;;;;5051900;28;19921;-93
2023/09/25 04:33:15;;;;;;;4.90;4.40;;;;;;;;;;5036082;28;20060;-93
2023/09/25 04:35:43;;;;;;;4.88;4.50;;;;;;;;;;5036369;28;20146;-93
2023/09/25 04:38:10;;;;;;;6.28;4.38;;;;;;;;;;5035068;28;20045;-93
2023/09/25 04:40:37;;;;;;;5.43;4.25;;;;;;;;;;5031886;28;20057;-93
2023/09/25 04:43:05;;;;;;;21.10;4.95;;;;;;;;;;5035146;28;20049;-94
2023/09/25 04:45:32;;;;;;;8.18;5.30;;;;;;;;;;5038001;28;20108;-94
2023/09/25 04:48:00;;;;;;;7.38;4.30;;;;;;;;;;5037266;28;20045;-93
2023/09/25 04:50:27;;;;;;;14.40;5.18;;;;;;;;;;5037182;28;20470;-93
2023/09/25 04:52:55;;;;;;;7.05;4.57;;;;;;;;;;5035970;28;20081;-93
2023/09/25 04:55:22;;;;;;;12.43;4.70;;;;;;;;;;5032352;28;20056;-94
2023/09/25 04:57:50;;;;;;;6.68;4.25;;;;;;;;;;5051557;28;20046;-94
2023/09/25 05:00:21;;;;;;;6.30;4.53;;;;;;;;;;5036750;28;20056;-94
2023/09/25 05:02:49;;;;;;;5.40;4.40;;;;;;;;;;5036750;28;20061;-93
2023/09/25 05:05:17;;;;;;;5.32;4.57;;;;;;;;;;5051595;28;20063;-93
2023/09/25 05:07:48;;;;;;;8.63;5.00;;;;;;;;;;5051104;28;20064;-93
2023/09/25 05:10:17;;;;;;;4.85;4.43;;;;;;;;;;5034653;28;20049;-94
2023/09/25 05:12:44;;;;;;;5.03;4.63;;;;;;;;;;5034844;28;20045;-93
2023/09/25 05:15:12;;;;;;;9.82;5.00;;;;;;;;;;5051365;28;20080;-93
2023/09/25 05:17:40;;;;;;;9.88;5.53;;;;;;;;;;5030999;28;20066;-94
2023/09/25 05:20:15;;;;;;;7.50;5.47;;;;;;;;;;5030400;28;20050;-93
2023/09/25 05:22:44;;;;;;;6.45;5.78;;;;;;;;;;5048326;28;20053;-93
2023/09/25 05:25:12;;;;;;;29.77;19.00;;;;;;;;;;5030866;28;20487;-94
2023/09/25 05:27:41;;;;;;;49.67;30.02;;;;;;;;;;5048697;28;20164;-94
2023/09/25 05:30:09;;;;;;;28.92;14.43;;;;;;;;;;5051660;28;20050;-94
2023/09/25 05:32:38;;;;;;;52.40;21.45;;;;;;;;;;5032122;28;20053;-93
2023/09/25 05:35:06;;;;;;;17.77;6.80;;;;;;;;;;5044234;28;20057;-94
2023/09/25 05:37:33;;;;;;;16.38;11.02;;;;;;;;;;5034615;28;20107;-91
2023/09/25 05:40:20;;;;;;;61.88;19.25;;;;;;;;;;5037008;28;20055;-96
2023/09/25 05:43:08;;;;;;;9.45;7.30;;;;;;;;;;5045177;28;20136;-96
2023/09/25 05:45:50;;;;;;;9.65;5.10;;;;;;;;;;5042296;28;20050;-95
2023/09/25 05:48:19;;;;;;;6.75;5.35;;;;;;;;;;5063283;28;20057;-96
2023/09/25 05:51:00;;;;;;;5.30;4.80;;;;;;;;;;5003503;28;20489;-94
2023/09/25 05:53:29;;;;;;;8.38;6.75;;;;;;;;;;5000334;28;20141;-95
2023/09/25 05:55:57;;;;;;;20.52;13.07;;;;;;;;;;4999743;28;20062;-95
2023/09/25 05:58:27;;;;;;;23.48;13.50;;;;;;;;;;4983689;28;20050;-96
2023/09/25 06:00:56;;;;;;;21.05;14.50;;;;;;;;;;4984247;28;20062;-95
2023/09/25 06:03:26;;;;;;;26.10;16.05;;;;;;;;;;4981062;28;20074;-95
2023/09/25 06:05:54;;;;;;;25.95;14.77;;;;;;;;;;5001134;28;20137;-94
2023/09/25 06:08:22;;;;;;;8.63;6.93;;;;;;;;;;4986668;28;20053;-95
2023/09/25 06:10:59;;;;;;;10.75;5.97;;;;;;;;;;4968458;28;20054;-95
2023/09/25 06:13:32;;;;;;;7.88;6.03;;;;;;;;;;4998988;28;20069;-95
2023/09/25 06:16:00;;;;;;;14.77;7.20;;;;;;;;;;4989148;28;20149;-94
2023/09/25 06:18:29;;;;;;;88.63;43.72;;;;;;;;;;4997296;28;20046;-94
2023/09/25 06:20:58;;;;;;;23.40;11.43;;;;;;;;;;4981592;28;20062;-95
2023/09/25 06:23:25;;;;;;;20.60;10.43;;;;;;;;;;5033121;28;20136;-95
2023/09/25 06:25:54;;;;;;;18.80;7.15;;;;;;;;;;5044154;28;20057;-94
2023/09/25 06:28:24;;;;;;;11.23;6.45;;;;;;;;;;5035335;28;20144;-95
2023/09/25 06:30:51;;;;;;;11.38;6.80;;;;;;;;;;5050878;28;20057;-95
2023/09/25 06:33:19;;;;;;;16.90;7.35;;;;;;;;;;5033012;28;20132;-94
2023/09/25 06:35:48;;;;;;;22.42;8.63;;;;;;;;;;5050531;28;20049;-95
2023/09/25 06:38:16;;;;;;;23.73;9.05;;;;;;;;;;5036193;28;20041;-94
2023/09/25 06:40:44;;;;;;;46.28;12.85;;;;;;;;;;5034658;28;20391;-94
2023/09/25 06:43:12;;;;;;;29.83;12.00;;;;;;;;;;5034977;28;20045;-93
2023/09/25 06:45:39;;;;;;;37.25;11.70;;;;;;;;;;5034297;28;20056;-94
2023/09/25 06:48:07;;;;;;;24.42;9.57;;;;;;;;;;5050878;28;20073;-93
2023/09/25 06:50:35;;;;;;;28.75;10.15;;;;;;;;;;5050879;28;20056;-91
2023/09/25 06:53:03;;;;;;;22.30;8.00;;;;;;;;;;5034095;28;20045;-93
2023/09/25 06:55:30;;;;;;;44.58;10.40;;;;;;;;;;5034561;28;20058;-92
2023/09/25 06:57:58;;;;;;;8.38;5.40;;;;;;;;;;5033390;28;20049;-92
2023/09/25 07:00:25;;;;;;;5.18;4.68;;;;;;;;;;5029708;28;20081;-91
2023/09/25 07:02:53;;;;;;;20.67;6.78;;;;;;;;;;5048337;28;20072;-91
2023/09/25 07:05:21;;;;;;;18.02;6.40;;;;;;;;;;5049559;28;20064;-90
2023/09/25 07:07:50;;;;;;;27.75;6.45;;;;;;;;;;5033142;28;20109;-90
2023/09/25 07:10:18;;;;;;;17.02;5.30;;;;;;;;;;5040819;28;20061;-91
2023/09/25 07:12:46;;;;;;;3.92;3.38;;;;;;;;;;5032878;28;20490;-92
2023/09/25 07:15:14;;;;;;;6.15;3.80;;;;;;;;;;5028886;28;20055;-89
2023/09/25 07:17:42;;;;;;;17.50;5.60;;;;;;;;;;5045843;28;20056;-91
2023/09/25 07:20:09;;;;;;;28.77;6.78;;;;;;;;;;5032319;28;20103;-90
2023/09/25 07:22:37;;;;;;;22.92;4.18;;;;;;;;;;5033120;28;20413;-90
2023/09/25 07:25:05;;;;;;;17.13;4.80;;;;;;;;;;5032052;28;20053;-90
2023/09/25 07:27:36;;;;;;;84.43;11.88;;;;;;;;;;5029558;28;20054;-90
2023/09/25 07:30:06;;;;;;;7.20;3.38;;;;;;;;;;5040939;28;20476;-90
2023/09/25 07:32:33;;;;;;;8.35;3.67;;;;;;;;;;5032959;28;20069;-90
2023/09/25 07:35:06;;;;;;;7.65;3.28;;;;;;;;;;5032633;28;20057;-89
2023/09/25 07:37:34;;;;;;;13.88;3.28;;;;;;;;;;5033405;28;20413;-90
2023/09/25 07:40:07;;;;;;;3.20;2.15;;;;;;;;;;5031859;28;20115;-89
2023/09/25 07:42:35;;;;;;;5.20;2.58;;;;;;;;;;5033951;28;20054;-90
2023/09/25 07:45:05;;;;;;;12.32;2.90;;;;;;;;;;5032169;28;20076;-90
2023/09/25 07:47:34;;;;;;;6.15;1.90;;;;;;;;;;5033328;28;20045;-89
2023/09/25 07:50:04;;;;;;;4.55;1.67;;;;;;;;;;5032059;28;20056;-88
2023/09/25 07:52:32;;;;;;;5.75;1.48;;;;;;;;;;5033307;28;20049;-90
2023/09/25 07:55:00;;;;;;;3.63;1.48;;;;;;;;;;5032488;28;20105;-89
2023/09/25 07:57:27;;;;;;;3.25;1.23;;;;;;;;;;5033912;28;20049;-91
2023/09/25 07:59:55;;;;;;;5.10;1.20;;;;;;;;;;5033137;28;20107;-90
2023/09/25 08:02:22;;;;;;;4.15;1.10;;;;;;;;;;5037035;28;20053;-90
2023/09/25 08:04:50;;;;;;;3.25;1.10;;;;;;;;;;5034473;28;20081;-89
2023/09/25 08:07:20;;;;;;;3.42;1.13;;;;;;;;;;5036981;28;20135;-90
2023/09/25 08:09:55;;;;;;;3.00;1.30;;;;;;;;;;5027762;28;20054;-89
2023/09/25 08:12:22;;;;;;;1.65;1.10;;;;;;;;;;5036001;28;20506;-89
2023/09/25 08:14:50;;;;;;;4.88;1.13;;;;;;;;;;5035756;28;20092;-90
2023/09/25 08:17:17;;;;;;;2.75;1.00;;;;;;;;;;5031934;28;20050;-89
2023/09/25 08:19:44;;;;;;;24.85;5.03;;;;;;;;;;5049768;28;20073;-89
2023/09/25 08:22:11;;;;;;;17.45;4.18;;;;;;;;;;5035732;28;20046;-89
2023/09/25 08:24:39;;;;;;;16.45;3.40;;;;;;;;;;5032862;28;20103;-90
2023/09/25 08:27:08;;;;;;;20.98;3.85;;;;;;;;;;5036824;28;20049;-89
2023/09/25 08:29:35;;;;;;;37.58;7.25;;;;;;;;;;5051738;28;20049;-88
2023/09/25 08:32:05;;;;;;;7.53;2.20;;;;;;;;;;5036522;28;20065;-89
2023/09/25 08:34:35;;;;;;;1.45;0.98;;;;;;;;;;5036482;28;20049;-89
2023/09/25 08:37:02;;;;;;;2.03;1.00;;;;;;;;;;5032467;28;20133;-89
2023/09/25 08:39:30;;;;;;;2.45;1.05;;;;;;;;;;5046884;28;20061;-89
2023/09/25 08:41:57;;;;;;;3.15;1.00;;;;;;;;;;5051402;28;20068;-87
2023/09/25 08:44:25;;;;;;;2.80;0.70;;;;;;;;;;5051365;28;20064;-89
2023/09/25 08:46:55;;;;;;;2.45;0.90;;;;;;;;;;5036874;28;20552;-91
2023/09/25 08:49:23;;;;;;;1.20;0.65;;;;;;;;;;5036464;28;20077;-89
2023/09/25 08:51:53;;;;;;;1.35;0.90;;;;;;;;;;5052584;28;20055;-91
2023/09/25 08:54:20;;;;;;;3.50;0.98;;;;;;;;;;5032235;28;20054;-90
2023/09/25 08:56:47;;;;;;;3.85;0.88;;;;;;;;;;5041576;28;20088;-89
2023/09/25 08:59:15;;;;;;;1.60;0.70;;;;;;;;;;5051909;28;20119;-91
2023/09/25 09:01:43;;;;;;;1.35;0.80;;;;;;;;;;5035279;28;20476;-89
2023/09/25 09:04:11;;;;;;;3.38;1.10;;;;;;;;;;5031575;28;20497;-90
2023/09/25 09:06:38;;;;;;;0.80;0.77;;;;;;;;;;5033321;28;20046;-90
2023/09/25 09:09:07;;;;;;;3.88;0.65;;;;;;;;;;5035305;28;20103;-90
2023/09/25 09:11:39;;;;;;;1.55;1.00;;;;;;;;;;5035147;28;20056;-90
2023/09/25 09:14:06;;;;;;;2.30;0.90;;;;;;;;;;5019393;28;20387;-92
2023/09/25 09:16:34;;;;;;;2.38;0.90;;;;;;;;;;5034747;28;20084;-91
2023/09/25 09:19:07;;;;;;;3.13;0.80;;;;;;;;;;5034913;28;20049;-92
2023/09/25 09:21:35;;;;;;;6.32;1.20;;;;;;;;;;5034335;28;20517;-92
2023/09/25 09:24:04;;;;;;;1.73;1.00;;;;;;;;;;5035194;28;20053;-90
2023/09/25 09:26:33;;;;;;;2.85;0.90;;;;;;;;;;5034659;28;20053;-94
2023/09/25 09:29:00;;;;;;;5.85;1.20;;;;;;;;;;5036339;28;20113;-93
2023/09/25 09:31:27;;;;;;;1.13;0.88;;;;;;;;;;5034201;28;20045;-92
2023/09/25 09:33:57;;;;;;;2.88;0.90;;;;;;;;;;5033731;28;20091;-92
2023/09/25 09:36:28;;;;;;;1.08;0.80;;;;;;;;;;5033756;28;20115;-91
2023/09/25 09:38:57;;;;;;;1.35;0.90;;;;;;;;;;5034233;28;20072;-93
2023/09/25 09:41:25;;;;;;;0.95;0.70;;;;;;;;;;5030574;28;20057;-91
2023/09/25 09:43:52;;;;;;;3.22;0.90;;;;;;;;;;5049231;28;20056;-96
2023/09/25 09:46:22;;;;;;;4.43;1.40;;;;;;;;;;5035367;28;20107;-91
2023/09/25 09:48:50;;;;;;;1.50;0.70;;;;;;;;;;5032065;28;20049;-91
2023/09/25 09:51:18;;;;;;;3.53;1.35;;;;;;;;;;5033611;28;20049;-95
2023/09/25 09:53:45;;;;;;;6.18;1.10;;;;;;;;;;5033889;28;20049;-92
2023/09/25 09:56:15;;;;;;;1.10;1.00;;;;;;;;;;5033858;28;20060;-92
2023/09/25 09:58:44;;;;;;;0.73;0.73;;;;;;;;;;5034502;28;20089;-92
2023/09/25 10:01:12;;;;;;;1.05;0.90;;;;;;;;;;5033272;28;20057;-92
2023/09/25 10:03:39;;;;;;;0.70;0.70;;;;;;;;;;5034447;28;20100;-92
2023/09/25 10:06:09;;;;;;;1.10;0.90;;;;;;;;;;5036243;28;20050;-93
2023/09/25 10:08:37;;;;;;;1.83;1.08;;;;;;;;;;5033736;28;20099;-90
2023/09/25 10:11:25;;;;;;;13.18;1.88;;;;;;;;;;5034190;28;20049;-92
2023/09/25 10:14:01;;;;;;;3.05;0.88;;;;;;;;;;5034112;28;20053;-93
2023/09/25 10:16:30;;;;;;;1.65;0.75;;;;;;;;;;5035789;28;20336;-94
2023/09/25 10:18:57;;;;;;;1.38;1.00;;;;;;;;;;5050368;28;20053;-94
2023/09/25 10:21:25;;;;;;;1.67;1.10;;;;;;;;;;5049833;28;20049;-92
2023/09/25 10:23:54;;;;;;;2.50;0.90;;;;;;;;;;5034092;28;20056;-93
2023/09/25 10:26:23;;;;;;;1.98;0.95;;;;;;;;;;5034403;28;20076;-91
2023/09/25 10:29:12;;;;;;;2.45;0.88;;;;;;;;;;5034070;28;20413;-92
2023/09/25 10:31:44;;;;;;;1.38;0.88;;;;;;;;;;5033094;28;20045;-93
2023/09/25 10:34:12;;;;;;;0.80;0.80;;;;;;;;;;5049889;28;20096;-93
2023/09/25 10:36:43;;;;;;;2.17;0.98;;;;;;;;;;5032708;28;20471;-94
2023/09/25 10:39:13;;;;;;;1.13;0.80;;;;;;;;;;5033088;28;20093;-93
2023/09/25 10:41:41;;;;;;;7.50;1.70;;;;;;;;;;5032914;28;20079;-92
2023/09/25 10:44:12;;;;;;;0.82;0.82;;;;;;;;;;5032871;28;20052;-94
2023/09/25 10:46:40;;;;;;;4.70;1.38;;;;;;;;;;5032691;28;20080;-93
2023/09/25 10:49:11;;;;;;;4.00;0.90;;;;;;;;;;5049495;28;20045;-92
2023/09/25 10:51:39;;;;;;;1.65;0.98;;;;;;;;;;5033604;28;20057;-91
2023/09/25 10:54:06;;;;;;;4.78;1.10;;;;;;;;;;5032803;28;20128;-92
2023/09/25 10:56:33;;;;;;;1.13;0.85;;;;;;;;;;5033660;28;20132;-92
2023/09/25 10:59:02;;;;;;;15.30;1.80;;;;;;;;;;5033675;28;20045;-91
2023/09/25 11:01:31;;;;;;;1.95;1.20;;;;;;;;;;5033662;28;20679;-92
2023/09/25 11:03:59;;;;;;;2.40;0.90;;;;;;;;;;5033606;28;20490;-91
2023/09/25 11:06:28;;;;;;;8.15;1.55;;;;;;;;;;5032542;28;20053;-92
2023/09/25 11:09:06;;;;;;;3.33;1.15;;;;;;;;;;5031666;28;20108;-92
2023/09/25 11:11:33;;;;;;;1.30;1.17;;;;;;;;;;5032643;28;20053;-91
2023/09/25 11:14:02;;;;;;;11.25;1.50;;;;;;;;;;5034718;28;20052;-92
2023/09/25 11:16:30;;;;;;;7.25;1.48;;;;;;;;;;5031992;28;20057;-91
2023/09/25 11:19:14;;;;;;;1.98;1.10;;;;;;;;;;5032426;28;20050;-92
2023/09/25 11:21:46;;;;;;;2.08;0.90;;;;;;;;;;5033104;28;20053;-91
2023/09/25 11:24:13;;;;;;;3.88;1.00;;;;;;;;;;5029326;28;20156;-90
2023/09/25 11:26:44;;;;;;;0.93;0.90;;;;;;;;;;5029657;28;20060;-91
2023/09/25 11:29:12;;;;;;;3.05;1.33;;;;;;;;;;5029993;28;20252;-95
2023/09/25 11:31:40;;;;;;;7.78;1.10;;;;;;;;;;5029945;28;20049;-92
2023/09/25 11:34:10;;;;;;;2.10;1.20;;;;;;;;;;5034116;28;20547;-91
2023/09/25 11:36:45;;;;;;;0.80;0.80;;;;;;;;;;5036979;28;20067;-92
2023/09/25 11:39:13;;;;;;;0.90;0.85;;;;;;;;;;5032854;28;20045;-92
2023/09/25 11:41:41;;;;;;;4.22;1.52;;;;;;;;;;5039607;28;20130;-92
2023/09/25 11:44:09;;;;;;;3.58;1.25;;;;;;;;;;5038136;28;20456;-92
2023/09/25 11:46:36;;;;;;;2.03;0.90;;;;;;;;;;5036231;28;20136;-91
2023/09/25 11:49:04;;;;;;;1.23;1.13;;;;;;;;;;5033246;28;20109;-91
2023/09/25 11:51:33;;;;;;;0.80;0.80;;;;;;;;;;5049057;28;20042;-93
2023/09/25 11:54:02;;;;;;;2.38;1.17;;;;;;;;;;5052313;28;20064;-90
2023/09/25 11:56:32;;;;;;;1.27;1.08;;;;;;;;;;5052483;28;20049;-91
2023/09/25 11:59:00;;;;;;;1.95;0.90;;;;;;;;;;5036018;28;20084;-93
2023/09/25 12:01:28;;;;;;;1.10;1.05;;;;;;;;;;5035912;28;20120;-92
2023/09/25 12:03:56;;;;;;;1.02;0.90;;;;;;;;;;5037073;28;20063;-90
2023/09/25 12:06:25;;;;;;;1.63;1.00;;;;;;;;;;5035883;28;20053;-93
2023/09/25 12:08:54;;;;;;;3.00;1.00;;;;;;;;;;5035816;28;20068;-94
2023/09/25 12:11:21;;;;;;;1.17;1.08;;;;;;;;;;5035769;28;20050;-93
2023/09/25 12:13:49;;;;;;;1.20;1.10;;;;;;;;;;5036695;28;20048;-90
2023/09/25 12:16:18;;;;;;;1.23;1.00;;;;;;;;;;5035629;28;20058;-93
2023/09/25 12:18:46;;;;;;;6.03;1.10;;;;;;;;;;5035648;28;20045;-94
2023/09/25 12:21:14;;;;;;;1.05;0.90;;;;;;;;;;5035459;28;20077;-92
2023/09/25 12:23:41;;;;;;;0.80;0.80;;;;;;;;;;5035998;28;20469;-90
2023/09/25 12:26:09;;;;;;;1.52;1.00;;;;;;;;;;5038732;28;20050;-93
2023/09/25 12:28:37;;;;;;;1.48;0.85;;;;;;;;;;5036650;28;20050;-93
2023/09/25 12:31:05;;;;;;;0.82;0.80;;;;;;;;;;5035605;28;20053;-95
2023/09/25 12:33:32;;;;;;;2.65;1.02;;;;;;;;;;5035705;28;20047;-93
2023/09/25 12:36:00;;;;;;;2.85;1.00;;;;;;;;;;5035393;28;20469;-92
2023/09/25 12:38:27;;;;;;;1.40;1.10;;;;;;;;;;5036619;28;20052;-90
2023/09/25 12:40:55;;;;;;;2.65;1.00;;;;;;;;;;5052809;28;20042;-93
2023/09/25 12:43:23;;;;;;;0.80;0.80;;;;;;;;;;5036363;28;20049;-94
2023/09/25 12:45:51;;;;;;;3.25;0.75;;;;;;;;;;5034744;28;20052;-92
2023/09/25 12:48:19;;;;;;;0.73;0.73;;;;;;;;;;5035329;28;20465;-93
2023/09/25 12:50:48;;;;;;;0.80;0.80;;;;;;;;;;5035961;28;20051;-91
2023/09/25 12:53:19;;;;;;;1.25;0.80;;;;;;;;;;5036918;28;20093;-90
2023/09/25 12:55:46;;;;;;;0.70;0.70;;;;;;;;;;5035707;28;20471;-92
2023/09/25 12:58:13;;;;;;;0.75;0.75;;;;;;;;;;5035720;28;20064;-92
2023/09/25 13:00:43;;;;;;;0.85;0.85;;;;;;;;;;5035381;28;20128;-92
2023/09/25 13:03:10;;;;;;;3.08;1.08;;;;;;;;;;5019284;28;20060;-94
2023/09/25 13:05:38;;;;;;;0.80;0.80;;;;;;;;;;5036178;28;20049;-93
2023/09/25 13:08:05;;;;;;;1.85;1.02;;;;;;;;;;5037399;28;20049;-91
2023/09/25 13:10:32;;;;;;;1.98;0.93;;;;;;;;;;5035418;28;20406;-92
2023/09/25 13:12:59;;;;;;;0.93;0.80;;;;;;;;;;5034082;28;20050;-94
2023/09/25 13:15:28;;;;;;;2.50;0.70;;;;;;;;;;5035497;28;20053;-92
2023/09/25 13:17:56;;;;;;;1.85;0.70;;;;;;;;;;5035756;28;20067;-94
2023/09/25 13:20:23;;;;;;;1.25;0.80;;;;;;;;;;5036621;28;20058;-94
2023/09/25 13:22:52;;;;;;;0.88;0.73;;;;;;;;;;5037384;28;20049;-94
2023/09/25 13:25:19;;;;;;;2.92;0.65;;;;;;;;;;5034216;28;20045;-90
2023/09/25 13:27:49;;;;;;;1.25;0.80;;;;;;;;;;5034419;28;20525;-93
2023/09/25 13:30:18;;;;;;;1.30;0.90;;;;;;;;;;5034310;28;20052;-92
2023/09/25 13:32:46;;;;;;;1.77;0.80;;;;;;;;;;5034343;28;20045;-94
2023/09/25 13:35:14;;;;;;;2.10;0.80;;;;;;;;;;5034337;28;20049;-91
2023/09/25 13:37:42;;;;;;;1.50;0.50;;;;;;;;;;5034657;28;20054;-93
2023/09/25 13:40:21;;;;;;;0.60;0.60;;;;;;;;;;5045869;28;20171;-91
2023/09/25 13:42:48;;;;;;;2.95;0.90;;;;;;;;;;5040300;28;20108;-91
2023/09/25 13:45:16;;;;;;;3.33;0.82;;;;;;;;;;5034051;28;20051;-95
2023/09/25 13:47:44;;;;;;;3.70;0.90;;;;;;;;;;5036259;28;20049;-94
2023/09/25 13:50:13;;;;;;;3.00;1.10;;;;;;;;;;5034034;28;20489;-94
2023/09/25 13:52:41;;;;;;;1.15;0.90;;;;;;;;;;5034659;28;20112;-91
2023/09/25 13:55:10;;;;;;;0.80;0.60;;;;;;;;;;5034071;28;20053;-91
2023/09/25 13:57:38;;;;;;;2.78;0.98;;;;;;;;;;5033898;28;20060;-93
2023/09/25 14:00:08;;;;;;;0.88;0.88;;;;;;;;;;5034463;28;20049;-92
2023/09/25 14:02:36;;;;;;;0.98;0.70;;;;;;;;;;5030395;28;20050;-93
2023/09/25 14:05:03;;;;;;;0.82;0.82;;;;;;;;;;5049714;28;20107;-93
2023/09/25 14:07:31;;;;;;;1.95;0.90;;;;;;;;;;5033952;28;20053;-93
2023/09/25 14:09:58;;;;;;;31.48;4.95;;;;;;;;;;5033533;28;20413;-92
2023/09/25 14:12:25;;;;;;;1.77;1.15;;;;;;;;;;5033876;28;20148;-92
2023/09/25 14:14:54;;;;;;;2.00;0.70;;;;;;;;;;5033679;28;20053;-91
2023/09/25 14:17:21;;;;;;;1.52;0.85;;;;;;;;;;5033077;28;20528;-92
2023/09/25 14:19:48;;;;;;;0.80;0.80;;;;;;;;;;5034323;28;20095;-91
2023/09/25 14:22:16;;;;;;;1.10;1.00;;;;;;;;;;5034930;28;20142;-93
2023/09/25 14:24:43;;;;;;;2.58;2.38;;;;;;;;;;5036068;28;20053;-90
2023/09/25 14:27:11;;;;;;;3.70;1.20;;;;;;;;;;5041372;28;20068;-93
2023/09/25 14:29:38;;;;;;;3.78;1.77;;;;;;;;;;5035941;28;20057;-92
2023/09/25 14:32:05;;;;;;;5.13;1.40;;;;;;;;;;5033197;28;20050;-94
2023/09/25 14:34:34;;;;;;;1.45;1.10;;;;;;;;;;5034113;28;20091;-91
2023/09/25 14:37:02;;;;;;;2.28;0.98;;;;;;;;;;5032777;28;20041;-92
2023/09/25 14:39:30;;;;;;;1.08;0.85;;;;;;;;;;5032980;28;20490;-91
2023/09/25 14:41:58;;;;;;;2.28;2.00;;;;;;;;;;5034037;28;20075;-93
2023/09/25 14:44:26;;;;;;;2.08;1.00;;;;;;;;;;5033737;28;20407;-94
2023/09/25 14:46:53;;;;;;;2.03;0.80;;;;;;;;;;5032923;28;20053;-91
2023/09/25 14:49:21;;;;;;;0.90;0.90;;;;;;;;;;5032900;28;20049;-93